الصفحة الرئيسية
METAR-TAF:

METAR-TAF

مطار :

Sunlight Mountain, كولورادو, الولايات المتحدة

دائرة عرض: 39-25-32N, خط طول: 107-22-45W, ارتفاع: 3232 متر

مراقبة الطقس الحالي

تاريخ ووقت الإصدار 27 دقيقة قبل الساعة 02:30UTC
ريح 8 عقدة من الشرق/الشمال الشرقي
درجة الحرارة 1°درجة مئوية
الرطوبة 80%
ضغط 1029 hPa
الرؤية: 16.1 كم
غيوم متفرقة على ارتفاع 11000 قدم

METAR: K5SM 230230Z AUTO 06008KT 10SM SCT110 01/M02 A3038 RMK AO2

زمن: 20:57 (02:57 UTC)


TAF: مفقودة

أرصاد الطقس والتوقعات من أكثر من 4000 مطار (تقارير الطقس للمطار METAR والتنبؤ بالطقس بالمطارTAF).

المحطات المتاحة هي النقط الصفراء والحمراء على الخريطة.

حرك المؤشر فوق النقطة لمعرفة اسم المحطة.

ثم انقر لمعرفة أرصاد وتوقعات الطقس.

لتغيير الخارطة: اضغط على الأزرار الخضراء مع رمز الصليب الأسود للتكبير. على الزر الأخضر مع شرطة للتصغير، أو على الأسهم الخضراء للخرائط المجاورة.


METAR-TAF: